Time;durP1;ratioP1;P1;durP2;ratioP2;P2;SDS_P1;SDS_P2;PMS_P1;PMS_P2;Temp;Humidity;BMP_temperature;BMP_pressure;BME280_temperature;BME280_humidity;BME280_pressure;Samples;Min_cycle;Max_cycle;Signal;HPM_P1;HPM_P2
2023/01/18 00:00:09;;;;;;;33.10;6.60;;;;;;;-143.84;97.04;44428.38;5093393;28;20463;-81
2023/01/18 00:02:36;;;;;;;36.17;7.50;;;;;;;-143.84;97.67;44439.78;5093438;28;20930;-81
2023/01/18 00:05:03;;;;;;;41.53;7.27;;;;;;;-143.84;98.04;44460.72;5093885;28;20556;-81
2023/01/18 00:07:32;;;;;;;31.83;5.57;;;;;;;-143.84;98.16;44458.81;5092879;28;20444;-78
2023/01/18 00:09:59;;;;;;;38.47;7.10;;;;;;;-143.84;98.40;44458.81;5093430;28;20475;-79
2023/01/18 00:12:26;;;;;;;35.13;7.03;;;;;;;-143.84;97.86;44455.03;5093143;28;21054;-79
2023/01/18 00:14:53;;;;;;;28.53;7.27;;;;;;;-143.84;97.87;44451.22;5093514;28;20477;-79
2023/01/18 00:17:20;;;;;;;31.57;7.10;;;;;;;-143.84;97.41;44445.50;5093426;28;20508;-79
2023/01/18 00:19:48;;;;;;;29.97;7.90;;;;;;;-143.84;97.67;44447.41;5093346;28;20443;-79
2023/01/18 00:22:15;;;;;;;37.90;7.27;;;;;;;-143.84;97.81;44441.69;5093600;28;20432;-79
2023/01/18 00:24:43;;;;;;;39.30;7.53;;;;;;;-143.84;97.38;44441.69;5092879;28;20439;-78
2023/01/18 00:27:11;;;;;;;30.23;8.17;;;;;;;-143.84;97.52;44443.59;5093045;28;20438;-78
2023/01/18 00:29:38;;;;;;;34.93;7.47;;;;;;;-143.84;97.69;44447.41;5092775;28;20470;-79
2023/01/18 00:32:05;;;;;;;36.57;6.23;;;;;;;-143.84;98.20;44447.41;5091665;28;20470;-78
2023/01/18 00:34:32;;;;;;;47.83;7.67;;;;;;;-143.84;97.92;44455.03;5092038;28;20931;-79
2023/01/18 00:36:59;;;;;;;20.33;6.00;;;;;;;-143.84;98.17;44455.03;5090240;28;20505;-79
2023/01/18 00:39:26;;;;;;;30.53;7.03;;;;;;;-143.84;98.01;44456.94;5091922;28;20471;-79
2023/01/18 00:44:39;;;;;;;39.57;8.30;;;;;;;-143.84;98.25;44455.03;5092887;28;20592;-79
2023/01/18 00:47:07;;;;;;;39.03;7.83;;;;;;;-143.84;98.14;44458.81;5092827;28;20439;-78
2023/01/18 00:49:34;;;;;;;40.83;6.67;;;;;;;-143.84;98.19;44456.94;5092378;28;20521;-78
2023/01/18 00:52:01;;;;;;;34.97;6.83;;;;;;;-143.84;97.58;44455.03;5092670;28;21194;-79
2023/01/18 00:54:28;;;;;;;35.93;7.17;;;;;;;-143.84;96.88;44435.97;5092645;28;21017;-79
2023/01/18 00:56:57;;;;;;;28.13;5.63;;;;;;;-143.84;96.44;44416.94;5092432;28;20435;-79
2023/01/18 00:59:24;;;;;;;29.63;5.57;;;;;;;-143.84;95.36;44380.78;5092903;28;20950;-78
2023/01/18 01:01:51;;;;;;;22.77;5.40;;;;;;;-143.84;94.76;44312.25;5093098;28;20485;-79
2023/01/18 01:07:03;;;;;;;30.27;5.67;;;;;;;-143.84;93.51;44236.09;5092603;28;20470;-78
2023/01/18 01:09:30;;;;;;;22.37;5.90;;;;;;;-143.84;93.08;44213.25;5092598;28;20762;-79
2023/01/18 01:26:06;;;;;;;27.00;4.97;;;;;;;-143.84;91.82;44150.41;5092439;28;20431;-78
2023/01/18 01:28:36;;;;;;;41.13;7.17;;;;;;;-143.84;92.39;44158.03;5092375;28;20451;-78
2023/01/18 01:31:05;;;;;;;41.63;7.40;;;;;;;-143.84;92.29;44163.75;5092243;28;20486;-78
2023/01/18 01:33:33;;;;;;;29.20;6.87;;;;;;;-143.84;92.83;44184.69;5092545;28;20436;-78
2023/01/18 01:36:03;;;;;;;38.10;6.03;;;;;;;-143.84;93.36;44184.69;5092245;28;20436;-78
2023/01/18 01:38:30;;;;;;;32.63;7.57;;;;;;;-143.84;93.39;44192.31;5092469;28;20433;-78
2023/01/18 01:40:59;;;;;;;33.03;7.00;;;;;;;-143.84;93.85;44201.81;5092469;28;20515;-78
2023/01/18 01:43:54;;;;;;;31.50;6.60;;;;;;;-143.84;94.09;44230.38;5094954;28;20462;-78
2023/01/18 01:46:30;;;;;;;37.83;6.63;;;;;;;-143.84;94.55;44243.69;5096723;28;20512;-78
2023/01/18 01:49:02;;;;;;;27.07;6.90;;;;;;;-143.84;94.88;44266.53;5096093;28;20467;-78
2023/01/18 01:51:29;;;;;;;40.17;7.37;;;;;;;-143.84;94.59;44270.34;5096129;28;20444;-78
2023/01/18 01:54:00;;;;;;;53.40;7.40;;;;;;;-143.84;94.84;44279.88;5096529;28;20423;-78
2023/01/18 01:56:28;;;;;;;33.70;7.90;;;;;;;-143.84;94.73;44266.53;5096178;28;20430;-78
2023/01/18 01:59:00;;;;;;;33.77;6.80;;;;;;;-143.84;94.33;44238.00;5096098;28;20493;-78
2023/01/18 02:01:28;;;;;;;26.27;6.37;;;;;;;-143.84;93.93;44234.19;5096148;28;20427;-78
2023/01/18 02:03:58;;;;;;;22.10;6.13;;;;;;;-143.84;93.91;44228.47;5095826;28;20436;-78
2023/01/18 02:06:31;;;;;;;30.63;5.90;;;;;;;-143.84;94.08;44222.75;5095882;28;20485;-78
2023/01/18 02:08:59;;;;;;;30.97;6.10;;;;;;;-143.84;94.21;44232.28;5096071;28;20428;-79
2023/01/18 02:11:27;;;;;;;31.90;6.63;;;;;;;-143.84;94.69;44249.41;5095325;28;20483;-79
2023/01/18 02:14:00;;;;;;;28.43;6.23;;;;;;;-143.84;95.16;44289.41;5095708;28;20500;-78
2023/01/18 02:16:40;;;;;;;30.23;6.90;;;;;;;-143.84;95.95;44323.66;5095710;28;20435;-79
2023/01/18 02:19:24;;;;;;;26.17;6.83;;;;;;;-143.84;96.26;44367.44;5095474;28;20441;-78
2023/01/18 02:21:56;;;;;;;28.50;6.97;;;;;;;-143.84;96.45;44392.19;5095764;28;20431;-78
2023/01/18 02:25:01;;;;;;;37.30;6.83;;;;;;;-143.84;96.83;44394.09;5096009;28;20445;-78
2023/01/18 02:27:42;;;;;;;32.33;6.67;;;;;;;-143.84;96.82;44407.44;5095912;28;20493;-78
2023/01/18 02:30:20;;;;;;;35.70;6.97;;;;;;;-143.84;97.72;44426.47;5095400;28;20468;-79
2023/01/18 02:32:58;;;;;;;28.33;6.50;;;;;;;-143.84;98.20;44439.78;5095537;28;20424;-78
2023/01/18 02:35:36;;;;;;;43.33;7.70;;;;;;;-143.84;98.38;44451.22;5095594;28;20435;-79
2023/01/18 02:38:09;;;;;;;55.33;7.20;;;;;;;-143.84;98.47;44451.22;5095303;28;20430;-79
2023/01/18 02:40:55;;;;;;;53.50;7.33;;;;;;;-143.84;98.62;44456.94;5095551;28;20496;-79
2023/01/18 02:46:33;;;;;;;34.00;6.50;;;;;;;-143.84;99.00;44458.81;5095159;28;20426;-80
2023/01/18 02:49:07;;;;;;;39.03;8.53;;;;;;;-143.84;99.11;44460.72;5094743;28;20461;-81
2023/01/18 02:51:34;;;;;;;42.30;6.80;;;;;;;-143.84;99.13;44462.63;5094706;28;20433;-81
2023/01/18 02:54:02;;;;;;;46.93;6.70;;;;;;;-143.84;99.20;44460.72;5093915;28;21019;-81
2023/01/18 02:56:35;;;;;;;32.70;6.03;;;;;;;-143.84;99.20;44462.63;5095157;28;20423;-81
2023/01/18 02:59:07;;;;;;;61.17;8.97;;;;;;;-143.84;99.34;44462.63;5094612;28;20468;-81
2023/01/18 03:01:40;;;;;;;38.10;6.90;;;;;;;-143.84;99.18;44458.81;5094376;28;20929;-81
2023/01/18 03:04:13;;;;;;;27.60;6.10;;;;;;;-143.84;99.06;44458.81;5094905;28;20435;-81
2023/01/18 03:06:42;;;;;;;25.10;6.60;;;;;;;-143.84;98.43;44456.94;5094255;28;20944;-81
2023/01/18 03:09:17;;;;;;;25.20;6.63;;;;;;;-143.84;98.65;44451.22;5094496;28;20911;-80
2023/01/18 03:11:53;;;;;;;53.70;7.83;;;;;;;-143.84;98.21;44451.22;5094544;28;20490;-81
2023/01/18 03:14:31;;;;;;;39.10;6.70;;;;;;;-143.84;98.58;44455.03;5094542;28;20918;-81
2023/01/18 03:17:06;;;;;;;31.23;7.10;;;;;;;-143.84;98.33;44455.03;5094456;28;20517;-81
2023/01/18 03:25:21;;;;;;;44.17;6.27;;;;;;;-143.84;97.19;44435.97;5094315;28;20477;-80
2023/01/18 03:33:46;;;;;;;28.37;5.67;;;;;;;-143.84;96.63;44415.03;5094271;28;20953;-80
2023/01/18 03:36:22;;;;;;;36.30;7.50;;;;;;;-143.84;96.32;44394.09;5094196;28;20440;-80
2023/01/18 03:38:54;;;;;;;25.60;5.90;;;;;;;-143.84;95.85;44361.72;5093976;28;20432;-81
2023/01/18 03:41:25;;;;;;;25.50;5.17;;;;;;;-143.84;95.23;44327.47;5094004;28;20449;-81
2023/01/18 03:43:56;;;;;;;28.47;5.47;;;;;;;-143.84;94.92;44298.91;5094325;28;20423;-79
2023/01/18 03:46:26;;;;;;;30.53;6.03;;;;;;;-143.84;93.53;44199.91;5094423;28;20773;-80
2023/01/18 03:48:55;;;;;;;30.67;6.17;;;;;;;-143.84;93.25;44198.00;5093770;28;21057;-80
2023/01/18 03:51:28;;;;;;;18.83;4.97;;;;;;;-143.84;92.94;44184.69;5092751;28;20918;-80
2023/01/18 03:54:07;;;;;;;38.57;5.30;;;;;;;-143.84;92.10;44154.22;5092778;28;20444;-80
2023/01/18 03:56:48;;;;;;;28.03;5.57;;;;;;;-143.84;91.06;44129.47;5091470;28;20436;-81
2023/01/18 03:59:16;;;;;;;23.30;4.87;;;;;;;-143.84;90.66;44106.63;5093451;28;21116;-81
2023/01/18 04:01:46;;;;;;;29.33;5.30;;;;;;;-143.84;90.56;44100.94;5093957;28;20489;-80
2023/01/18 04:04:15;;;;;;;23.77;4.90;;;;;;;-143.84;89.44;44072.38;5093754;28;20450;-80
2023/01/18 04:06:42;;;;;;;25.93;4.40;;;;;;;-143.84;88.66;44062.84;5092365;28;20496;-80
2023/01/18 04:09:10;;;;;;;23.73;4.17;;;;;;;-143.84;88.37;44047.63;5093743;28;20420;-80
2023/01/18 04:11:37;;;;;;;25.63;5.40;;;;;;;-143.84;88.30;44038.09;5093229;28;20493;-80
2023/01/18 04:14:04;;;;;;;31.37;6.47;;;;;;;-143.84;88.31;44053.34;5093577;28;20861;-80
2023/01/18 04:16:31;;;;;;;31.43;7.03;;;;;;;-143.84;87.28;44015.25;5093542;28;20486;-80
2023/01/18 04:18:59;;;;;;;19.83;4.80;;;;;;;-143.84;86.54;43998.13;5093546;28;20882;-81
2023/01/18 04:21:27;;;;;;;18.37;5.70;;;;;;;-143.84;86.12;43969.59;5093227;28;20489;-80
2023/01/18 04:23:54;;;;;;;32.47;6.30;;;;;;;-143.84;85.72;43981.00;5093088;28;20448;-81
2023/01/18 04:26:21;;;;;;;32.93;5.80;;;;;;;-143.84;85.85;43982.91;5093054;28;20429;-81
2023/01/18 04:28:48;;;;;;;33.13;5.87;;;;;;;-143.84;85.75;43977.19;5093376;28;20486;-79
2023/01/18 04:31:15;;;;;;;22.20;5.43;;;;;;;-143.84;85.60;43965.78;5092783;28;20521;-79
2023/01/18 04:33:42;;;;;;;19.13;4.37;;;;;;;-143.84;85.29;43946.75;5093124;28;20439;-79
2023/01/18 04:36:10;;;;;;;26.23;5.17;;;;;;;-143.84;84.73;43929.59;5092872;28;20481;-79
2023/01/18 04:38:38;;;;;;;24.50;6.60;;;;;;;-143.84;85.20;43958.16;5092952;28;20483;-79
2023/01/18 04:41:06;;;;;;;19.27;4.97;;;;;;;-143.84;85.03;43939.13;5092690;28;20442;-79
2023/01/18 04:43:33;;;;;;;29.63;5.57;;;;;;;-143.84;84.66;43918.19;5092941;28;20435;-79
2023/01/18 04:46:00;;;;;;;64.03;8.10;;;;;;;-143.84;84.57;43929.59;5092769;28;20477;-79
2023/01/18 04:48:27;;;;;;;37.83;8.73;;;;;;;-143.84;84.71;43929.59;5092739;28;20490;-79
2023/01/18 04:50:54;;;;;;;37.77;5.53;;;;;;;-143.84;84.83;43942.94;5092414;28;20537;-79
2023/01/18 04:53:22;;;;;;;33.00;6.20;;;;;;;-143.84;84.84;43946.75;5092435;28;20429;-79
2023/01/18 04:55:50;;;;;;;33.87;6.67;;;;;;;-143.84;84.78;43933.41;5092848;28;20511;-79
2023/01/18 04:58:18;;;;;;;26.97;7.10;;;;;;;-143.84;84.63;43941.03;5092406;28;20560;-78
2023/01/18 05:00:45;;;;;;;25.23;5.90;;;;;;;-143.84;84.14;43931.50;5092761;28;20862;-77
2023/01/18 05:03:13;;;;;;;21.07;5.37;;;;;;;-143.84;83.95;43914.38;5092776;28;20426;-77
2023/01/18 05:05:40;;;;;;;27.30;5.70;;;;;;;-143.84;83.76;43904.84;5092645;28;20854;-78
2023/01/18 05:08:07;;;;;;;34.63;6.47;;;;;;;-143.84;83.95;43910.56;5092463;28;20516;-78
2023/01/18 05:10:36;;;;;;;29.33;5.80;;;;;;;-143.84;83.94;43918.19;5092540;28;20569;-78
2023/01/18 05:13:06;;;;;;;27.10;6.90;;;;;;;-143.84;83.60;43914.38;5092071;28;20543;-78
2023/01/18 05:15:33;;;;;;;33.33;5.67;;;;;;;-143.84;83.49;43902.97;5092195;28;20452;-76
2023/01/18 05:18:01;;;;;;;19.07;5.50;;;;;;;-143.84;83.53;43922.00;5092005;28;20928;-77
2023/01/18 05:20:28;;;;;;;44.50;5.70;;;;;;;-143.84;83.35;43914.38;5092550;28;20432;-77
2023/01/18 05:22:56;;;;;;;32.97;6.53;;;;;;;-143.84;83.32;43904.84;5092742;28;20490;-78
2023/01/18 05:25:23;;;;;;;25.47;5.23;;;;;;;-143.84;83.50;43893.44;5092165;28;20434;-78
2023/01/18 05:27:50;;;;;;;28.90;5.33;;;;;;;-143.84;83.38;43908.66;5091985;28;20451;-81
2023/01/18 05:30:19;;;;;;;23.50;5.90;;;;;;;-143.84;83.59;43897.25;5092424;28;20480;-80
2023/01/18 05:32:46;;;;;;;37.63;4.97;;;;;;;-143.84;83.24;43864.88;5092329;28;20466;-79
2023/01/18 05:35:13;;;;;;;24.60;6.40;;;;;;;-143.84;83.51;43902.97;5092091;28;20497;-79
2023/01/18 05:37:40;;;;;;;34.10;6.83;;;;;;;-143.84;83.66;43916.28;5092172;28;20831;-79
2023/01/18 05:40:09;;;;;;;42.00;6.60;;;;;;;-143.84;83.67;43914.38;5091924;28;20935;-80
2023/01/18 05:42:36;;;;;;;32.50;6.37;;;;;;;-143.84;83.62;43906.75;5092794;28;20528;-80
2023/01/18 05:45:03;;;;;;;38.33;7.00;;;;;;;-143.84;83.55;43899.16;5091891;28;20450;-82
2023/01/18 05:47:32;;;;;;;24.00;6.33;;;;;;;-143.84;83.39;43882.00;5092013;28;20446;-83
2023/01/18 05:49:59;;;;;;;31.43;6.07;;;;;;;-143.84;83.45;43904.84;5092170;28;20426;-82
2023/01/18 05:52:27;;;;;;;38.57;6.73;;;;;;;-143.84;83.26;43904.84;5092138;28;20448;-79
2023/01/18 05:54:54;;;;;;;24.67;5.07;;;;;;;-143.84;83.58;43883.91;5092456;28;20439;-81
2023/01/18 05:57:21;;;;;;;32.03;5.87;;;;;;;-143.84;83.26;43895.34;5092850;28;20495;-83
2023/01/18 05:59:48;;;;;;;31.73;5.73;;;;;;;-143.84;83.05;43874.41;5092164;28;20436;-82
2023/01/18 06:02:15;;;;;;;31.73;4.83;;;;;;;-143.84;83.00;43880.13;5092115;28;20770;-84
2023/01/18 06:04:44;;;;;;;31.57;5.43;;;;;;;-143.84;82.72;43902.97;5090943;28;20934;-80
2023/01/18 06:07:12;;;;;;;22.47;4.90;;;;;;;-143.84;82.97;43880.13;5091009;28;20435;-83
2023/01/18 06:09:40;;;;;;;23.00;5.33;;;;;;;-143.84;82.87;43878.22;5091349;28;20437;-82
2023/01/18 06:12:07;;;;;;;36.20;6.83;;;;;;;-143.84;82.97;43889.63;5090894;28;20552;-82
2023/01/18 06:14:35;;;;;;;19.70;6.13;;;;;;;-143.84;82.84;43880.13;5091051;28;20931;-82
2023/01/18 06:17:02;;;;;;;31.37;5.20;;;;;;;-143.84;83.01;43878.22;5091146;28;20457;-81
2023/01/18 06:19:29;;;;;;;35.60;6.07;;;;;;;-143.84;82.71;43893.44;5091171;28;20450;-81
2023/01/18 06:21:58;;;;;;;29.00;5.73;;;;;;;-143.84;82.74;43882.00;5090615;28;20431;-82
2023/01/18 06:24:38;;;;;;;40.10;5.33;;;;;;;-143.84;82.75;43876.31;5090575;28;20501;-82
2023/01/18 06:27:06;;;;;;;26.00;6.40;;;;;;;-143.84;82.19;43882.00;5090603;28;20431;-83
2023/01/18 06:29:33;;;;;;;30.60;6.40;;;;;;;-143.84;82.25;43880.13;5092072;28;20442;-83
2023/01/18 06:32:00;;;;;;;28.53;5.47;;;;;;;-143.84;82.28;43872.50;5094455;28;20535;-82
2023/01/18 06:34:28;;;;;;;24.10;5.50;;;;;;;-143.84;82.27;43870.59;5094152;28;20428;-82
2023/01/18 06:36:57;;;;;;;29.03;5.83;;;;;;;-143.84;82.29;43882.00;5094844;28;20432;-83
2023/01/18 06:39:24;;;;;;;49.60;6.70;;;;;;;-143.84;81.79;43870.59;5094605;28;20497;-83
2023/01/18 06:41:51;;;;;;;33.60;6.50;;;;;;;-143.84;81.76;43862.97;5095042;28;20439;-83
2023/01/18 06:44:18;;;;;;;37.33;5.90;;;;;;;-143.84;82.04;43849.66;5094896;28;20807;-83
2023/01/18 06:46:46;;;;;;;29.73;6.07;;;;;;;-143.84;82.15;43868.69;5095087;28;20989;-83
2023/01/18 06:49:13;;;;;;;36.00;5.90;;;;;;;-143.84;81.75;43843.94;5094961;28;20445;-83
2023/01/18 06:51:41;;;;;;;31.47;6.00;;;;;;;-143.84;81.61;43849.66;5094510;28;20469;-82
2023/01/18 06:54:09;;;;;;;28.70;5.57;;;;;;;-143.84;81.81;43849.66;5094562;28;20505;-82
2023/01/18 06:56:36;;;;;;;27.40;5.43;;;;;;;-143.84;81.63;43847.75;5094441;28;20435;-82
2023/01/18 06:59:04;;;;;;;27.57;6.03;;;;;;;-143.84;81.70;43851.56;5094752;28;20443;-82
2023/01/18 07:01:31;;;;;;;35.47;6.30;;;;;;;-143.84;81.12;43853.47;5094556;28;20849;-82
2023/01/18 07:03:58;;;;;;;24.77;5.23;;;;;;;-143.84;81.40;43868.69;5094763;28;20407;-83
2023/01/18 07:06:26;;;;;;;20.13;5.70;;;;;;;-143.84;81.04;43857.28;5094744;28;20444;-82
2023/01/18 07:08:53;;;;;;;27.10;7.33;;;;;;;-143.84;81.30;43855.38;5093982;28;20483;-81
2023/01/18 07:11:22;;;;;;;22.60;5.07;;;;;;;-143.84;81.30;43823.00;5092845;28;20498;-81
2023/01/18 07:13:49;;;;;;;30.73;5.63;;;;;;;-143.84;81.36;43866.78;5092477;28;20444;-79
2023/01/18 07:16:18;;;;;;;17.10;4.93;;;;;;;-143.84;81.13;43836.34;5093604;28;20942;-79
2023/01/18 07:18:46;;;;;;;31.87;7.37;;;;;;;-143.84;80.71;43840.13;5093881;28;20445;-79
2023/01/18 07:21:14;;;;;;;41.17;6.73;;;;;;;-143.84;80.78;43847.75;5093881;28;20454;-79
2023/01/18 07:23:42;;;;;;;29.23;5.80;;;;;;;-143.84;80.59;43834.44;5093894;28;20428;-79
2023/01/18 07:26:12;;;;;;;33.90;6.40;;;;;;;-143.84;80.34;43826.81;5093994;28;20860;-79
2023/01/18 07:28:41;;;;;;;31.83;8.00;;;;;;;-143.84;80.34;43836.34;5093661;28;20436;-79
2023/01/18 07:31:08;;;;;;;22.57;5.87;;;;;;;-143.84;79.48;43823.00;5093638;28;21065;-79
2023/01/18 07:33:35;;;;;;;26.77;5.13;;;;;;;-143.84;79.31;43855.38;5094006;28;20435;-79
2023/01/18 07:36:05;;;;;;;24.03;6.70;;;;;;;-143.84;79.45;43887.72;5093576;28;20434;-79
2023/01/18 07:38:32;;;;;;;29.07;7.20;;;;;;;-143.84;78.86;43876.31;5093487;28;20471;-79
2023/01/18 07:41:02;;;;;;;24.63;7.00;;;;;;;-143.84;78.86;43883.91;5093064;28;20436;-79
2023/01/18 07:43:29;;;;;;;28.47;6.20;;;;;;;-143.84;78.83;43883.91;5093544;28;20437;-80
2023/01/18 07:45:58;;;;;;;30.03;6.20;;;;;;;-143.84;78.48;43963.88;5093225;28;20481;-80
2023/01/18 07:48:26;;;;;;;36.23;6.23;;;;;;;-143.84;78.71;43916.28;5093289;28;20440;-80
2023/01/18 07:50:55;;;;;;;27.70;5.63;;;;;;;-143.84;78.28;43954.34;5093166;28;20467;-79
2023/01/18 07:53:22;;;;;;;22.03;6.10;;;;;;;-143.84;78.34;43931.50;5093338;28;20450;-78
2023/01/18 07:55:49;;;;;;;20.63;5.80;;;;;;;-143.84;78.27;43979.09;5092991;28;20469;-78
2023/01/18 07:58:17;;;;;;;26.73;6.60;;;;;;;-143.84;78.25;43954.34;5093476;28;20481;-78
2023/01/18 08:00:44;;;;;;;27.80;5.50;;;;;;;-143.84;78.17;43956.25;5093025;28;21026;-78
2023/01/18 08:03:14;;;;;;;23.73;6.17;;;;;;;-143.84;77.88;44005.75;5093235;28;20493;-78
2023/01/18 08:05:44;;;;;;;35.47;7.03;;;;;;;-143.84;76.92;44142.81;5092983;28;20435;-78
2023/01/18 08:08:12;;;;;;;26.27;6.73;;;;;;;-143.84;76.77;44207.53;5092961;28;20440;-79
2023/01/18 08:10:40;;;;;;;20.43;5.93;;;;;;;-143.84;76.09;44281.78;5093035;28;20509;-79
2023/01/18 08:13:09;;;;;;;38.20;4.70;;;;;;;-143.84;76.55;44209.44;5092920;28;20480;-79
2023/01/18 08:15:37;;;;;;;25.70;6.87;;;;;;;-143.84;76.57;44217.06;5092897;28;20446;-79
2023/01/18 08:18:06;;;;;;;30.53;5.70;;;;;;;-143.84;76.81;44177.06;5092710;28;20424;-79
2023/01/18 08:20:35;;;;;;;22.70;6.17;;;;;;;-143.84;76.57;44213.25;5092785;28;20492;-79
2023/01/18 08:23:02;;;;;;;30.27;6.17;;;;;;;-143.84;76.34;44230.38;5093047;28;20478;-79
2023/01/18 08:25:32;;;;;;;31.87;6.27;;;;;;;-143.84;76.67;44215.16;5092879;28;20970;-79
2023/01/18 08:28:01;;;;;;;47.47;7.00;;;;;;;-143.84;76.36;44205.63;5092662;28;20444;-79
2023/01/18 08:30:30;;;;;;;34.63;6.50;;;;;;;-143.84;75.22;44472.16;5092892;28;20873;-79
2023/01/18 08:32:59;;;;;;;28.40;5.47;;;;;;;-143.84;74.94;44538.78;5092593;28;20472;-79
2023/01/18 08:35:27;;;;;;;25.20;5.90;;;;;;;-143.84;74.62;44580.69;5092586;28;20942;-79
2023/01/18 08:37:56;;;;;;;30.17;6.50;;;;;;;-143.84;74.21;44653.03;5092449;28;20435;-79
2023/01/18 08:40:24;;;;;;;36.67;6.80;;;;;;;-143.84;72.93;44820.56;5092738;28;20440;-80
2023/01/18 08:42:55;;;;;;;24.00;6.00;;;;;;;-143.84;72.51;44860.56;5092290;28;20432;-80
2023/01/18 08:45:22;;;;;;;36.37;6.50;;;;;;;-143.84;71.79;44881.50;5092642;28;20971;-80
2023/01/18 08:47:56;;;;;;;39.97;7.20;;;;;;;-143.84;71.14;44980.53;5092291;28;20444;-80
2023/01/18 08:50:23;;;;;;;28.50;5.10;;;;;;;-143.84;69.64;45001.47;5092071;28;20877;-80
2023/01/18 08:52:51;;;;;;;30.43;6.97;;;;;;;-143.84;70.53;44990.03;5091486;28;20464;-80
2023/01/18 08:55:23;;;;;;;43.73;7.30;;;;;;;-143.84;70.42;44990.03;5092152;28;20432;-79
2023/01/18 08:57:53;;;;;;;32.60;6.60;;;;;;;-143.84;69.33;45024.31;5092286;28;20451;-80
2023/01/18 09:00:22;;;;;;;29.17;5.43;;;;;;;-143.84;68.84;45041.44;5091969;28;20497;-80
2023/01/18 09:02:50;;;;;;;37.33;7.17;;;;;;;-143.84;67.84;45060.50;5092175;28;20863;-80
2023/01/18 09:05:17;;;;;;;28.93;5.70;;;;;;;-143.84;65.71;45102.38;5091884;28;20436;-80
2023/01/18 09:07:44;;;;;;;30.37;6.50;;;;;;;-143.84;65.34;45092.88;5092546;28;20424;-81
2023/01/18 09:10:12;;;;;;;24.17;5.50;;;;;;;-143.84;64.49;45111.91;5092014;28;20456;-80
2023/01/18 09:12:41;;;;;;;29.63;6.37;;;;;;;-143.84;64.08;45081.44;5091577;28;20517;-80
2023/01/18 09:15:09;;;;;;;23.57;5.80;;;;;;;-143.84;63.32;45119.53;5092020;28;20440;-81
2023/01/18 09:17:36;;;;;;;22.70;5.30;;;;;;;-143.84;62.58;45113.81;5091724;28;20942;-80
2023/01/18 09:20:08;;;;;;;30.80;6.00;;;;;;;-143.84;62.12;45123.34;5091963;28;20432;-80
2023/01/18 09:22:35;;;;;;;34.27;5.70;;;;;;;-143.84;61.56;45110.00;5091806;28;20444;-80
2023/01/18 09:25:03;;;;;;;24.13;5.83;;;;;;;-143.84;60.32;45150.00;5091693;28;20440;-80
2023/01/18 09:27:30;;;;;;;33.93;5.20;;;;;;;-143.84;59.95;45121.44;5092020;28;20914;-80
2023/01/18 09:29:59;;;;;;;18.57;5.57;;;;;;;-143.84;59.22;45123.34;5091833;28;20435;-80
2023/01/18 09:32:26;;;;;;;40.37;6.53;;;;;;;-143.84;59.88;45119.53;5091633;28;21005;-80
2023/01/18 09:34:53;;;;;;;32.50;5.73;;;;;;;-143.84;58.47;45144.28;5091536;28;20861;-80
2023/01/18 09:37:21;;;;;;;26.33;5.30;;;;;;;-143.84;56.39;45125.22;5091845;28;20535;-80
2023/01/18 09:39:48;;;;;;;21.90;4.77;;;;;;;-143.84;56.65;45115.72;5091982;28;20515;-80
2023/01/18 09:42:21;;;;;;;22.50;5.23;;;;;;;-143.84;54.32;45136.66;5091910;28;20493;-80
2023/01/18 09:44:52;;;;;;;32.17;6.77;;;;;;;-143.84;54.26;45090.97;5091773;28;20434;-80
2023/01/18 09:47:25;;;;;;;24.70;6.30;;;;;;;-143.84;54.74;45130.94;5091539;28;20493;-80
2023/01/18 09:49:56;;;;;;;23.47;4.80;;;;;;;-143.84;54.73;45129.03;5091674;28;20448;-80
2023/01/18 09:52:33;;;;;;;27.13;5.20;;;;;;;-143.84;55.61;45142.38;5091543;28;20491;-80
2023/01/18 09:55:09;;;;;;;24.00;5.60;;;;;;;-143.84;56.20;45123.34;5091629;28;20489;-79
2023/01/18 09:57:49;;;;;;;21.27;4.70;;;;;;;-143.84;55.30;45130.94;5091400;28;20436;-80
2023/01/18 10:00:21;;;;;;;19.93;4.33;;;;;;;-143.84;56.03;45144.28;5091814;28;20424;-80
2023/01/18 10:02:54;;;;;;;36.40;6.00;;;;;;;-143.84;55.99;45125.22;5091915;28;20880;-79
2023/01/18 10:05:25;;;;;;;21.47;5.20;;;;;;;-143.84;54.85;45132.84;5095262;28;20440;-79
2023/01/18 10:08:02;;;;;;;26.80;5.87;;;;;;;-143.84;54.64;45138.56;5095492;28;20427;-79
2023/01/18 10:10:37;;;;;;;29.90;4.97;;;;;;;-143.84;54.47;45157.59;5095784;28;20448;-79
2023/01/18 10:13:21;;;;;;;23.73;4.50;;;;;;;-143.84;55.49;45151.91;5094883;28;20494;-80
2023/01/18 10:15:49;;;;;;;23.73;5.40;;;;;;;-143.84;55.11;45150.00;5095488;28;20431;-81
2023/01/18 10:18:19;;;;;;;19.07;5.83;;;;;;;-143.84;55.18;45129.03;5095001;28;20443;-81
2023/01/18 10:20:54;;;;;;;22.73;4.23;;;;;;;-143.84;53.48;45138.56;5095268;28;20921;-80
2023/01/18 10:23:27;;;;;;;29.53;5.10;;;;;;;-143.84;53.94;45117.63;5094834;28;20526;-81
2023/01/18 10:25:56;;;;;;;20.67;4.57;;;;;;;-143.84;54.17;45153.81;5095098;28;20800;-80
2023/01/18 10:28:38;;;;;;;26.20;5.67;;;;;;;-143.84;54.43;45115.72;5093978;28;20443;-81
2023/01/18 10:31:21;;;;;;;30.87;5.67;;;;;;;-143.84;51.36;45127.13;5092848;28;20464;-81
2023/01/18 10:33:55;;;;;;;33.47;4.73;;;;;;;-143.84;50.02;45136.66;5095172;28;20497;-80
2023/01/18 10:36:31;;;;;;;28.27;4.23;;;;;;;-143.84;50.05;45130.94;5095851;28;20442;-78
2023/01/18 10:39:03;;;;;;;21.20;4.67;;;;;;;-143.84;50.11;45119.53;5095641;28;20428;-79
2023/01/18 10:41:36;;;;;;;16.67;4.70;;;;;;;-143.84;50.27;45136.66;5095609;28;20424;-78
2023/01/18 10:44:04;;;;;;;38.93;5.53;;;;;;;-143.84;50.91;45144.28;5095881;28;20417;-78
2023/01/18 10:46:31;;;;;;;26.07;5.70;;;;;;;-143.84;50.15;45123.34;5095384;28;20450;-78
2023/01/18 10:49:00;;;;;;;18.73;4.83;;;;;;;-143.84;49.76;45123.34;5095281;28;20850;-78
2023/01/18 10:51:31;;;;;;;28.93;5.83;;;;;;;-143.84;48.98;45115.72;5094924;28;20436;-78
2023/01/18 10:53:58;;;;;;;27.07;5.20;;;;;;;-143.84;49.72;45125.22;5094813;28;20819;-78
2023/01/18 10:56:28;;;;;;;19.97;4.47;;;;;;;-143.84;48.99;45140.47;5094404;28;20962;-78
2023/01/18 10:58:58;;;;;;;21.40;4.60;;;;;;;-143.84;49.15;45121.44;5094734;28;20427;-78
2023/01/18 11:01:27;;;;;;;23.33;4.30;;;;;;;-143.84;49.88;45121.44;5094381;28;20436;-78
2023/01/18 11:04:01;;;;;;;20.60;5.17;;;;;;;-143.84;50.89;45161.41;5094695;28;20436;-78
2023/01/18 11:06:30;;;;;;;19.33;4.90;;;;;;;-143.84;51.83;45136.66;5094262;28;20451;-78
2023/01/18 11:08:58;;;;;;;34.07;5.07;;;;;;;-143.84;51.85;45127.13;5094385;28;20452;-78
2023/01/18 11:14:24;;;;;;;30.00;4.80;;;;;;;-143.84;53.06;45123.34;5094012;28;21145;-78
2023/01/18 11:16:59;;;;;;;21.10;5.00;;;;;;;-143.84;52.02;45138.56;5093506;28;20450;-78
2023/01/18 11:19:27;;;;;;;35.60;5.53;;;;;;;-143.84;52.67;45146.19;5093970;28;21028;-77
2023/01/18 11:21:56;;;;;;;19.43;4.47;;;;;;;-143.84;52.60;45155.69;5094015;28;20505;-78
2023/01/18 11:24:27;;;;;;;19.70;4.60;;;;;;;-143.84;52.41;45142.38;5093865;28;20955;-77
2023/01/18 11:27:00;;;;;;;21.60;4.60;;;;;;;-143.84;53.14;45159.50;5093849;28;20439;-78
2023/01/18 11:29:30;;;;;;;32.03;5.50;;;;;;;-143.84;53.46;45150.00;5094051;28;20431;-77
2023/01/18 11:32:03;;;;;;;13.80;3.83;;;;;;;-143.84;53.94;45153.81;5093703;28;20479;-78
2023/01/18 11:34:34;;;;;;;28.30;5.10;;;;;;;-143.84;52.82;45155.69;5094153;28;20447;-78
2023/01/18 11:37:03;;;;;;;18.90;4.93;;;;;;;-143.84;53.12;45186.16;5093699;28;20485;-78
2023/01/18 11:39:34;;;;;;;25.43;4.67;;;;;;;-143.84;52.97;45117.63;5093519;28;20497;-78
2023/01/18 11:42:21;;;;;;;20.17;4.50;;;;;;;-143.84;54.91;45161.41;5093598;28;20447;-77
2023/01/18 11:44:58;;;;;;;25.87;4.50;;;;;;;-143.84;53.44;45136.66;5093365;28;20436;-77
2023/01/18 11:47:34;;;;;;;30.10;4.70;;;;;;;-143.84;52.99;45129.03;5093609;28;20863;-77
2023/01/18 11:50:08;;;;;;;23.40;3.53;;;;;;;-143.84;52.92;45144.28;5093054;28;20969;-77
2023/01/18 11:52:45;;;;;;;25.13;5.37;;;;;;;-143.84;52.39;45144.28;5093291;28;20466;-77
2023/01/18 11:55:23;;;;;;;28.43;4.67;;;;;;;-143.84;52.75;45148.09;5093260;28;20463;-77
2023/01/18 11:57:52;;;;;;;26.53;4.37;;;;;;;-143.84;52.16;45121.44;5093137;28;20469;-76